sensor_id;sensor_type;location;lat;lon;timestamp;pressure;altitude;pressure_sealevel;temperature;humidity
13422;BME280;6782;55.904;13.396;2023-04-27T00:02:39;100510.84;;;3.86;100.00
13422;BME280;6782;55.904;13.396;2023-04-27T00:05:26;100523.00;;;3.92;100.00
13422;BME280;6782;55.904;13.396;2023-04-27T00:08:14;100516.94;;;3.97;100.00
13422;BME280;6782;55.904;13.396;2023-04-27T00:11:01;100518.66;;;3.89;100.00
13422;BME280;6782;55.904;13.396;2023-04-27T00:13:48;100520.41;;;3.87;100.00
13422;BME280;6782;55.904;13.396;2023-04-27T00:16:35;100509.97;;;3.73;100.00
13422;BME280;6782;55.904;13.396;2023-04-27T00:19:24;100509.97;;;3.69;100.00
13422;BME280;6782;55.904;13.396;2023-04-27T00:22:11;100541.25;;;3.81;100.00
13422;BME280;6782;55.904;13.396;2023-04-27T00:24:58;100528.22;;;3.78;100.00
13422;BME280;6782;55.904;13.396;2023-04-27T00:27:45;100524.72;;;3.70;100.00
13422;BME280;6782;55.904;13.396;2023-04-27T00:30:32;100538.66;;;3.79;100.00
13422;BME280;6782;55.904;13.396;2023-04-27T00:33:20;100523.88;;;3.62;100.00
13422;BME280;6782;55.904;13.396;2023-04-27T00:36:09;100533.44;;;3.66;100.00
13422;BME280;6782;55.904;13.396;2023-04-27T00:38:56;100517.78;;;3.54;100.00
13422;BME280;6782;55.904;13.396;2023-04-27T00:41:43;100542.97;;;3.58;100.00
13422;BME280;6782;55.904;13.396;2023-04-27T00:44:31;100532.53;;;3.52;100.00
13422;BME280;6782;55.904;13.396;2023-04-27T00:47:18;100544.72;;;3.53;100.00
13422;BME280;6782;55.904;13.396;2023-04-27T00:50:06;100562.97;;;3.68;100.00
13422;BME280;6782;55.904;13.396;2023-04-27T00:52:56;100549.91;;;3.53;100.00
13422;BME280;6782;55.904;13.396;2023-04-27T00:55:44;100542.94;;;3.43;100.00
13422;BME280;6782;55.904;13.396;2023-04-27T00:58:32;100560.34;;;3.50;100.00
13422;BME280;6782;55.904;13.396;2023-04-27T01:01:19;100574.25;;;3.58;100.00
13422;BME280;6782;55.904;13.396;2023-04-27T01:04:06;100557.72;;;3.50;100.00
13422;BME280;6782;55.904;13.396;2023-04-27T01:06:54;100568.16;;;3.50;100.00
13422;BME280;6782;55.904;13.396;2023-04-27T01:09:43;100561.19;;;3.43;100.00
13422;BME280;6782;55.904;13.396;2023-04-27T01:12:31;100599.47;;;3.68;100.00
13422;BME280;6782;55.904;13.396;2023-04-27T01:15:18;100567.28;;;3.39;100.00
13422;BME280;6782;55.904;13.396;2023-04-27T01:18:06;100587.28;;;3.52;100.00
13422;BME280;6782;55.904;13.396;2023-04-27T01:20:53;100581.19;;;3.44;100.00
13422;BME280;6782;55.904;13.396;2023-04-27T01:23:42;100562.88;;;3.27;100.00
13422;BME280;6782;55.904;13.396;2023-04-27T01:26:29;100581.16;;;3.29;100.00
13422;BME280;6782;55.904;13.396;2023-04-27T01:29:17;100582.88;;;3.28;100.00
13422;BME280;6782;55.904;13.396;2023-04-27T01:32:04;100581.13;;;3.23;100.00
13422;BME280;6782;55.904;13.396;2023-04-27T01:34:51;100588.03;;;3.17;100.00
13422;BME280;6782;55.904;13.396;2023-04-27T01:37:38;100598.53;;;3.33;100.00
13422;BME280;6782;55.904;13.396;2023-04-27T01:40:28;100593.28;;;3.27;100.00
13422;BME280;6782;55.904;13.396;2023-04-27T01:43:15;100596.75;;;3.23;100.00
13422;BME280;6782;55.904;13.396;2023-04-27T01:46:07;100599.38;;;3.26;100.00
13422;BME280;6782;55.904;13.396;2023-04-27T01:48:55;100598.47;;;3.17;100.00
13422;BME280;6782;55.904;13.396;2023-04-27T01:51:43;100584.53;;;3.09;100.00
13422;BME280;6782;55.904;13.396;2023-04-27T01:54:31;100598.47;;;3.19;100.00
13422;BME280;6782;55.904;13.396;2023-04-27T01:57:19;100598.50;;;3.21;100.00
13422;BME280;6782;55.904;13.396;2023-04-27T02:00:07;100590.66;;;3.19;100.00
13422;BME280;6782;55.904;13.396;2023-04-27T02:02:55;100597.59;;;3.17;100.00
13422;BME280;6782;55.904;13.396;2023-04-27T02:05:45;100580.19;;;3.11;100.00
13422;BME280;6782;55.904;13.396;2023-04-27T02:08:33;100584.53;;;3.09;100.00
13422;BME280;6782;55.904;13.396;2023-04-27T02:11:20;100582.81;;;3.11;100.00
13422;BME280;6782;55.904;13.396;2023-04-27T02:14:09;100577.56;;;3.08;100.00
13422;BME280;6782;55.904;13.396;2023-04-27T02:16:56;100577.56;;;3.08;100.00
13422;BME280;6782;55.904;13.396;2023-04-27T02:19:43;100578.44;;;3.04;100.00
13422;BME280;6782;55.904;13.396;2023-04-27T02:22:31;100571.47;;;3.03;100.00
13422;BME280;6782;55.904;13.396;2023-04-27T02:25:20;100575.81;;;3.01;100.00
13422;BME280;6782;55.904;13.396;2023-04-27T02:28:08;100575.78;;;2.98;100.00
13422;BME280;6782;55.904;13.396;2023-04-27T02:30:57;100572.38;;;3.02;100.00
13422;BME280;6782;55.904;13.396;2023-04-27T02:33:44;100568.81;;;2.91;100.00
13422;BME280;6782;55.904;13.396;2023-04-27T02:36:32;100577.50;;;2.90;100.00
13422;BME280;6782;55.904;13.396;2023-04-27T02:39:19;100578.34;;;2.86;100.00
13422;BME280;6782;55.904;13.396;2023-04-27T02:42:06;100577.47;;;2.81;100.00
13422;BME280;6782;55.904;13.396;2023-04-27T02:44:54;100571.34;;;2.72;100.00
13422;BME280;6782;55.904;13.396;2023-04-27T02:47:43;100587.81;;;2.69;100.00
13422;BME280;6782;55.904;13.396;2023-04-27T02:50:30;100595.59;;;2.68;100.00
13422;BME280;6782;55.904;13.396;2023-04-27T02:53:18;100599.94;;;2.64;100.00
13422;BME280;6782;55.904;13.396;2023-04-27T02:56:05;100608.59;;;2.63;100.00
13422;BME280;6782;55.904;13.396;2023-04-27T02:58:53;100603.34;;;2.54;100.00
13422;BME280;6782;55.904;13.396;2023-04-27T03:01:41;100612.84;;;2.52;100.00
13422;BME280;6782;55.904;13.396;2023-04-27T03:04:29;100624.13;;;2.52;100.00
13422;BME280;6782;55.904;13.396;2023-04-27T03:07:17;100627.59;;;2.50;100.00
13422;BME280;6782;55.904;13.396;2023-04-27T03:10:05;100619.78;;;2.48;100.00
13422;BME280;6782;55.904;13.396;2023-04-27T03:12:52;100639.69;;;2.45;100.00
13422;BME280;6782;55.904;13.396;2023-04-27T03:15:40;100646.75;;;2.58;100.00
13422;BME280;6782;55.904;13.396;2023-04-27T03:18:27;100652.03;;;2.70;100.00
13422;BME280;6782;55.904;13.396;2023-04-27T03:21:16;100652.06;;;2.73;100.00
13422;BME280;6782;55.904;13.396;2023-04-27T03:24:04;100666.84;;;2.79;100.00
13422;BME280;6782;55.904;13.396;2023-04-27T03:26:51;100675.59;;;2.88;100.00
13422;BME280;6782;55.904;13.396;2023-04-27T03:29:38;100670.34;;;2.85;100.00
13422;BME280;6782;55.904;13.396;2023-04-27T03:32:26;100673.03;;;2.94;100.00
13422;BME280;6782;55.904;13.396;2023-04-27T03:35:13;100682.56;;;2.95;100.00
13422;BME280;6782;55.904;13.396;2023-04-27T03:38:02;100685.22;;;3.01;100.00
13422;BME280;6782;55.904;13.396;2023-04-27T03:40:49;100681.75;;;3.02;100.00
13422;BME280;6782;55.904;13.396;2023-04-27T03:43:36;100701.75;;;3.05;100.00
13422;BME280;6782;55.904;13.396;2023-04-27T03:46:23;100693.97;;;3.12;100.00
13422;BME280;6782;55.904;13.396;2023-04-27T03:49:10;100698.38;;;3.23;100.00
13422;BME280;6782;55.904;13.396;2023-04-27T03:51:58;100693.16;;;3.23;100.00
13422;BME280;6782;55.904;13.396;2023-04-27T03:54:47;100713.28;;;3.51;100.00
13422;BME280;6782;55.904;13.396;2023-04-27T03:57:34;100732.53;;;3.83;100.00
13422;BME280;6782;55.904;13.396;2023-04-27T04:00:21;100709.03;;;3.72;100.00
13422;BME280;6782;55.904;13.396;2023-04-27T04:03:09;100688.06;;;3.48;100.00
13422;BME280;6782;55.904;13.396;2023-04-27T04:05:57;100682.84;;;3.44;100.00
13422;BME280;6782;55.904;13.396;2023-04-27T04:08:44;100694.16;;;3.49;100.00
13422;BME280;6782;55.904;13.396;2023-04-27T04:11:33;100704.63;;;3.53;100.00
13422;BME280;6782;55.904;13.396;2023-04-27T04:14:20;100717.69;;;3.64;100.00
13422;BME280;6782;55.904;13.396;2023-04-27T04:17:08;100736.03;;;3.91;100.00
13422;BME280;6782;55.904;13.396;2023-04-27T04:19:56;100746.59;;;4.23;100.00
13422;BME280;6782;55.904;13.396;2023-04-27T04:22:43;100771.00;;;4.66;100.00
13422;BME280;6782;55.904;13.396;2023-04-27T04:25:30;100771.00;;;5.11;100.00
13422;BME280;6782;55.904;13.396;2023-04-27T04:28:19;100757.91;;;5.38;100.00
13422;BME280;6782;55.904;13.396;2023-04-27T04:31:07;100720.44;;;5.24;100.00
13422;BME280;6782;55.904;13.396;2023-04-27T04:33:54;100683.91;;;5.00;100.00
13422;BME280;6782;55.904;13.396;2023-04-27T04:36:41;100685.69;;;4.90;100.00
13422;BME280;6782;55.904;13.396;2023-04-27T04:39:29;100672.63;;;4.90;100.00
13422;BME280;6782;55.904;13.396;2023-04-27T04:42:17;100648.25;;;4.60;100.00
13422;BME280;6782;55.904;13.396;2023-04-27T04:45:08;100648.28;;;4.41;100.00
13422;BME280;6782;55.904;13.396;2023-04-27T04:47:56;100637.84;;;4.20;100.00
13422;BME280;6782;55.904;13.396;2023-04-27T04:50:45;100666.53;;;4.32;100.00
13422;BME280;6782;55.904;13.396;2023-04-27T04:53:32;100691.78;;;4.65;100.00
13422;BME280;6782;55.904;13.396;2023-04-27T04:56:19;100698.75;;;4.72;100.00
13422;BME280;6782;55.904;13.396;2023-04-27T04:59:07;100697.88;;;4.78;100.00
13422;BME280;6782;55.904;13.396;2023-04-27T05:01:56;100679.59;;;4.73;100.00
13422;BME280;6782;55.904;13.396;2023-04-27T05:04:43;100709.19;;;4.87;100.00
13422;BME280;6782;55.904;13.396;2023-04-27T05:07:31;100710.91;;;5.02;100.00
13422;BME280;6782;55.904;13.396;2023-04-27T05:10:18;100722.19;;;5.30;100.00
13422;BME280;6782;55.904;13.396;2023-04-27T05:13:05;100715.22;;;5.36;100.00
13422;BME280;6782;55.904;13.396;2023-04-27T05:15:52;100689.06;;;5.30;100.00
13422;BME280;6782;55.904;13.396;2023-04-27T05:18:41;100658.66;;;5.08;100.00
13422;BME280;6782;55.904;13.396;2023-04-27T05:21:28;100658.66;;;5.02;100.00
13422;BME280;6782;55.904;13.396;2023-04-27T05:24:16;100669.91;;;5.22;100.00
13422;BME280;6782;55.904;13.396;2023-04-27T05:27:03;100686.41;;;5.42;100.00
13422;BME280;6782;55.904;13.396;2023-04-27T05:29:50;100697.69;;;5.58;100.00
13422;BME280;6782;55.904;13.396;2023-04-27T05:32:38;100711.53;;;5.86;100.00
13422;BME280;6782;55.904;13.396;2023-04-27T05:35:27;100694.94;;;5.88;100.00
13422;BME280;6782;55.904;13.396;2023-04-27T05:38:15;100652.38;;;5.50;100.00
13422;BME280;6782;55.904;13.396;2023-04-27T05:41:02;100648.91;;;5.46;100.00
13422;BME280;6782;55.904;13.396;2023-04-27T05:43:50;100656.69;;;5.61;100.00
13422;BME280;6782;55.904;13.396;2023-04-27T05:46:38;100672.28;;;5.78;100.00
13422;BME280;6782;55.904;13.396;2023-04-27T05:49:25;100666.09;;;5.99;100.00
13422;BME280;6782;55.904;13.396;2023-04-27T05:52:14;100683.31;;;6.39;100.00
13422;BME280;6782;55.904;13.396;2023-04-27T05:55:01;100645.03;;;6.20;100.00
13422;BME280;6782;55.904;13.396;2023-04-27T05:57:48;100617.25;;;6.01;100.00
13422;BME280;6782;55.904;13.396;2023-04-27T06:00:36;100594.69;;;5.85;100.00
13422;BME280;6782;55.904;13.396;2023-04-27T06:03:24;100583.41;;;5.66;100.00
13422;BME280;6782;55.904;13.396;2023-04-27T06:06:11;100596.53;;;5.61;100.00
13422;BME280;6782;55.904;13.396;2023-04-27T06:09:00;100617.31;;;5.86;100.00
13422;BME280;6782;55.904;13.396;2023-04-27T06:11:47;100600.75;;;5.88;100.00
13422;BME280;6782;55.904;13.396;2023-04-27T06:14:35;100593.72;;;5.96;100.00
13422;BME280;6782;55.904;13.396;2023-04-27T06:17:23;100598.03;;;6.02;100.00
13422;BME280;6782;55.904;13.396;2023-04-27T06:20:10;100570.06;;;6.07;100.00
13422;BME280;6782;55.904;13.396;2023-04-27T06:22:59;100596.00;;;6.37;100.00
13422;BME280;6782;55.904;13.396;2023-04-27T06:25:49;100578.31;;;6.60;100.00
13422;BME280;6782;55.904;13.396;2023-04-27T06:28:36;100572.81;;;6.84;100.00
13422;BME280;6782;55.904;13.396;2023-04-27T06:31:23;100545.00;;;6.71;100.00
13422;BME280;6782;55.904;13.396;2023-04-27T06:34:10;100536.38;;;6.63;100.00
13422;BME280;6782;55.904;13.396;2023-04-27T06:36:57;100489.34;;;6.51;100.00
13422;BME280;6782;55.904;13.396;2023-04-27T06:39:45;100501.44;;;6.64;100.00
13422;BME280;6782;55.904;13.396;2023-04-27T06:42:34;100506.47;;;6.82;100.00
13422;BME280;6782;55.904;13.396;2023-04-27T06:45:21;100491.59;;;6.83;100.00
13422;BME280;6782;55.904;13.396;2023-04-27T06:48:09;100458.56;;;6.70;100.00
13422;BME280;6782;55.904;13.396;2023-04-27T06:50:56;100416.09;;;6.42;100.00
13422;BME280;6782;55.904;13.396;2023-04-27T06:53:44;100401.47;;;6.26;100.00
13422;BME280;6782;55.904;13.396;2023-04-27T06:56:31;100389.00;;;6.46;100.00
13422;BME280;6782;55.904;13.396;2023-04-27T06:59:20;100357.19;;;6.75;100.00
13422;BME280;6782;55.904;13.396;2023-04-27T07:02:07;100326.19;;;7.03;100.00
13422;BME280;6782;55.904;13.396;2023-04-27T07:04:55;100289.38;;;7.09;100.00
13422;BME280;6782;55.904;13.396;2023-04-27T07:07:42;100262.16;;;7.14;100.00
13422;BME280;6782;55.904;13.396;2023-04-27T07:10:30;100225.31;;;7.23;100.00
13422;BME280;6782;55.904;13.396;2023-04-27T07:13:17;100172.97;;;7.19;100.00
13422;BME280;6782;55.904;13.396;2023-04-27T07:16:07;100133.16;;;7.41;100.00
13422;BME280;6782;55.904;13.396;2023-04-27T07:18:54;100075.22;;;7.52;100.00
13422;BME280;6782;55.904;13.396;2023-04-27T07:21:42;100040.72;;;7.70;100.00
13422;BME280;6782;55.904;13.396;2023-04-27T07:24:30;99958.41;;;7.73;100.00
13422;BME280;6782;55.904;13.396;2023-04-27T07:27:17;99790.50;;;7.39;100.00
13422;BME280;6782;55.904;13.396;2023-04-27T07:30:06;99709.91;;;7.12;100.00
13422;BME280;6782;55.904;13.396;2023-04-27T07:32:56;99684.06;;;6.97;100.00
13422;BME280;6782;55.904;13.396;2023-04-27T07:35:45;99818.00;;;7.23;100.00
13422;BME280;6782;55.904;13.396;2023-04-27T07:38:34;99795.81;;;7.36;100.00
13422;BME280;6782;55.904;13.396;2023-04-27T07:41:23;99746.56;;;7.47;100.00
13422;BME280;6782;55.904;13.396;2023-04-27T07:44:10;99726.81;;;7.32;100.00
13422;BME280;6782;55.904;13.396;2023-04-27T07:46:58;99770.28;;;7.09;100.00
13422;BME280;6782;55.904;13.396;2023-04-27T07:49:50;100010.00;;;7.37;100.00
13422;BME280;6782;55.904;13.396;2023-04-27T07:52:38;100084.19;;;7.42;100.00
13422;BME280;6782;55.904;13.396;2023-04-27T07:55:25;100144.91;;;7.65;100.00
13422;BME280;6782;55.904;13.396;2023-04-27T07:58:13;100134.31;;;7.68;100.00
13422;BME280;6782;55.904;13.396;2023-04-27T08:01:00;100080.81;;;7.37;100.00
13422;BME280;6782;55.904;13.396;2023-04-27T08:03:47;100165.44;;;7.45;100.00
13422;BME280;6782;55.904;13.396;2023-04-27T08:06:36;100177.72;;;7.43;100.00
13422;BME280;6782;55.904;13.396;2023-04-27T08:09:24;100116.13;;;6.73;100.00
13422;BME280;6782;55.904;13.396;2023-04-27T08:12:11;100281.47;;;6.55;100.00
13422;BME280;6782;55.904;13.396;2023-04-27T08:14:58;100383.59;;;6.58;100.00
13422;BME280;6782;55.904;13.396;2023-04-27T08:17:46;100421.22;;;6.54;100.00
13422;BME280;6782;55.904;13.396;2023-04-27T08:20:33;100443.94;;;6.52;100.00
13422;BME280;6782;55.904;13.396;2023-04-27T08:23:25;100481.88;;;6.92;100.00
13422;BME280;6782;55.904;13.396;2023-04-27T08:26:13;100424.81;;;7.10;100.00
13422;BME280;6782;55.904;13.396;2023-04-27T08:29:01;100410.47;;;7.32;100.00
13422;BME280;6782;55.904;13.396;2023-04-27T08:31:49;100336.25;;;7.27;100.00
13422;BME280;6782;55.904;13.396;2023-04-27T08:34:36;100312.56;;;7.33;100.00
13422;BME280;6782;55.904;13.396;2023-04-27T08:37:23;100372.00;;;7.84;100.00
13422;BME280;6782;55.904;13.396;2023-04-27T08:40:13;100167.44;;;7.75;100.00
13422;BME280;6782;55.904;13.396;2023-04-27T08:43:00;100155.09;;;7.80;100.00
13422;BME280;6782;55.904;13.396;2023-04-27T08:45:48;100170.56;;;7.92;100.00
13422;BME280;6782;55.904;13.396;2023-04-27T08:48:36;100151.47;;;7.84;100.00
13422;BME280;6782;55.904;13.396;2023-04-27T08:51:23;100144.50;;;7.83;100.00
13422;BME280;6782;55.904;13.396;2023-04-27T08:54:12;99978.47;;;7.75;100.00
13422;BME280;6782;55.904;13.396;2023-04-27T08:57:01;99923.56;;;7.68;100.00
13422;BME280;6782;55.904;13.396;2023-04-27T08:59:57;99957.03;;;7.93;100.00
13422;BME280;6782;55.904;13.396;2023-04-27T09:02:46;99946.94;;;8.10;100.00
13422;BME280;6782;55.904;13.396;2023-04-27T09:05:34;99860.44;;;8.04;100.00
13422;BME280;6782;55.904;13.396;2023-04-27T09:08:21;99684.00;;;7.64;100.00
13422;BME280;6782;55.904;13.396;2023-04-27T09:11:08;99554.97;;;6.90;100.00
13422;BME280;6782;55.904;13.396;2023-04-27T09:13:59;99675.50;;;5.80;100.00
13422;BME280;6782;55.904;13.396;2023-04-27T09:16:53;100057.69;;;5.61;100.00
13422;BME280;6782;55.904;13.396;2023-04-27T09:19:41;100324.34;;;5.74;100.00
13422;BME280;6782;55.904;13.396;2023-04-27T09:22:29;100501.13;;;6.06;100.00
13422;BME280;6782;55.904;13.396;2023-04-27T09:25:28;100590.81;;;6.34;100.00
13422;BME280;6782;55.904;13.396;2023-04-27T09:28:15;100630.81;;;6.51;100.00
13422;BME280;6782;55.904;13.396;2023-04-27T09:31:05;100722.84;;;7.14;100.00
13422;BME280;6782;55.904;13.396;2023-04-27T09:33:54;100738.34;;;7.35;100.00
13422;BME280;6782;55.904;13.396;2023-04-27T09:36:42;100714.00;;;7.22;100.00
13422;BME280;6782;55.904;13.396;2023-04-27T09:39:30;100652.81;;;7.22;100.00
13422;BME280;6782;55.904;13.396;2023-04-27T09:42:17;100698.00;;;7.45;100.00
13422;BME280;6782;55.904;13.396;2023-04-27T09:45:06;100735.94;;;7.91;100.00
13422;BME280;6782;55.904;13.396;2023-04-27T09:47:57;100536.03;;;7.57;100.00
13422;BME280;6782;55.904;13.396;2023-04-27T09:50:45;100483.47;;;7.64;100.00
13422;BME280;6782;55.904;13.396;2023-04-27T09:53:36;100412.25;;;7.83;100.00
13422;BME280;6782;55.904;13.396;2023-04-27T09:56:31;100325.59;;;7.85;100.00
13422;BME280;6782;55.904;13.396;2023-04-27T09:59:44;100328.13;;;8.35;100.00
13422;BME280;6782;55.904;13.396;2023-04-27T10:02:41;100282.28;;;8.50;100.00
13422;BME280;6782;55.904;13.396;2023-04-27T10:08:54;100119.31;;;8.85;100.00
13422;BME280;6782;55.904;13.396;2023-04-27T10:11:44;100046.06;;;9.02;100.00
13422;BME280;6782;55.904;13.396;2023-04-27T10:14:32;99804.19;;;8.73;100.00
13422;BME280;6782;55.904;13.396;2023-04-27T10:17:24;99667.91;;;8.61;100.00
13422;BME280;6782;55.904;13.396;2023-04-27T10:20:12;99615.59;;;8.53;100.00
13422;BME280;6782;55.904;13.396;2023-04-27T10:22:59;99642.91;;;8.48;100.00
13422;BME280;6782;55.904;13.396;2023-04-27T10:25:48;99714.16;;;8.39;100.00
13422;BME280;6782;55.904;13.396;2023-04-27T10:28:37;99686.00;;;8.70;100.00
13422;BME280;6782;55.904;13.396;2023-04-27T10:31:26;99518.41;;;8.78;100.00
13422;BME280;6782;55.904;13.396;2023-04-27T10:34:16;99377.97;;;8.60;100.00
13422;BME280;6782;55.904;13.396;2023-04-27T10:37:07;99214.41;;;8.34;100.00
13422;BME280;6782;55.904;13.396;2023-04-27T10:40:03;99390.00;;;8.67;100.00
13422;BME280;6782;55.904;13.396;2023-04-27T10:42:52;99661.31;;;9.50;100.00
13422;BME280;6782;55.904;13.396;2023-04-27T10:45:39;99387.50;;;9.53;100.00
13422;BME280;6782;55.904;13.396;2023-04-27T10:48:29;99169.06;;;9.73;100.00
13422;BME280;6782;55.904;13.396;2023-04-27T10:51:16;99048.53;;;9.79;100.00
13422;BME280;6782;55.904;13.396;2023-04-27T10:54:04;98803.97;;;9.58;100.00
13422;BME280;6782;55.904;13.396;2023-04-27T10:56:51;98850.56;;;9.73;100.00
13422;BME280;6782;55.904;13.396;2023-04-27T10:59:49;98791.31;;;9.81;100.00
13422;BME280;6782;55.904;13.396;2023-04-27T11:02:37;98931.38;;;10.24;100.00
13422;BME280;6782;55.904;13.396;2023-04-27T11:05:17;98818.16;;;10.39;100.00
13422;BME280;6782;55.904;13.396;2023-04-27T11:07:45;98469.47;;;10.25;100.00
13422;BME280;6782;55.904;13.396;2023-04-27T11:10:16;98486.53;;;10.33;100.00
13422;BME280;6782;55.904;13.396;2023-04-27T11:12:44;98367.59;;;10.25;100.00
13422;BME280;6782;55.904;13.396;2023-04-27T11:15:13;98403.19;;;10.46;100.00
13422;BME280;6782;55.904;13.396;2023-04-27T11:17:40;98168.94;;;10.29;100.00
13422;BME280;6782;55.904;13.396;2023-04-27T11:20:08;98207.13;;;10.36;100.00
13422;BME280;6782;55.904;13.396;2023-04-27T11:22:45;98301.00;;;10.65;100.00
13422;BME280;6782;55.904;13.396;2023-04-27T11:25:13;98105.06;;;10.26;100.00
13422;BME280;6782;55.904;13.396;2023-04-27T11:27:40;98255.06;;;10.55;100.00
13422;BME280;6782;55.904;13.396;2023-04-27T11:30:19;97824.81;;;10.03;99.14
13422;BME280;6782;55.904;13.396;2023-04-27T11:32:48;98001.00;;;10.06;100.00
13422;BME280;6782;55.904;13.396;2023-04-27T11:35:16;97938.66;;;9.80;100.00
13422;BME280;6782;55.904;13.396;2023-04-27T11:37:43;98261.84;;;10.03;100.00
13422;BME280;6782;55.904;13.396;2023-04-27T11:40:12;98361.59;;;10.37;100.00
13422;BME280;6782;55.904;13.396;2023-04-27T11:42:40;98240.22;;;10.12;100.00
13422;BME280;6782;55.904;13.396;2023-04-27T11:45:12;98224.41;;;9.98;100.00
13422;BME280;6782;55.904;13.396;2023-04-27T11:47:45;98416.59;;;9.98;100.00
13422;BME280;6782;55.904;13.396;2023-04-27T11:50:12;98364.66;;;9.86;100.00
13422;BME280;6782;55.904;13.396;2023-04-27T11:52:39;98482.00;;;9.90;100.00
13422;BME280;6782;55.904;13.396;2023-04-27T11:55:07;98371.91;;;9.67;100.00
13422;BME280;6782;55.904;13.396;2023-04-27T11:57:41;98276.91;;;9.57;100.00
13422;BME280;6782;55.904;13.396;2023-04-27T12:00:09;98409.53;;;10.14;100.00
13422;BME280;6782;55.904;13.396;2023-04-27T12:02:41;98473.25;;;10.79;99.82
13422;BME280;6782;55.904;13.396;2023-04-27T12:05:09;98032.59;;;10.72;96.16
13422;BME280;6782;55.904;13.396;2023-04-27T12:07:41;98057.75;;;11.03;95.28
13422;BME280;6782;55.904;13.396;2023-04-27T12:10:09;98172.25;;;11.38;94.73
13422;BME280;6782;55.904;13.396;2023-04-27T12:12:36;98035.72;;;11.29;93.47
13422;BME280;6782;55.904;13.396;2023-04-27T12:15:04;97672.50;;;10.47;92.41
13422;BME280;6782;55.904;13.396;2023-04-27T12:17:33;98027.84;;;10.64;93.75
13422;BME280;6782;55.904;13.396;2023-04-27T12:20:03;97602.78;;;9.79;92.51
13422;BME280;6782;55.904;13.396;2023-04-27T12:22:31;97773.34;;;9.47;93.57
13422;BME280;6782;55.904;13.396;2023-04-27T12:24:59;100229.06;;;9.44;95.92
13422;BME280;6782;55.904;13.396;2023-04-27T12:27:26;100314.88;;;9.50;97.82
13422;BME280;6782;55.904;13.396;2023-04-27T12:29:53;100324.16;;;9.31;98.89
13422;BME280;6782;55.904;13.396;2023-04-27T12:32:24;100290.00;;;9.28;97.44
13422;BME280;6782;55.904;13.396;2023-04-27T12:34:52;100257.94;;;9.14;96.44
13422;BME280;6782;55.904;13.396;2023-04-27T12:37:21;100345.75;;;9.43;96.82
13422;BME280;6782;55.904;13.396;2023-04-27T12:39:49;100430.25;;;10.36;96.90
13422;BME280;6782;55.904;13.396;2023-04-27T12:42:16;100436.66;;;10.89;97.61
13422;BME280;6782;55.904;13.396;2023-04-27T12:44:48;100226.34;;;10.38;91.98
13422;BME280;6782;55.904;13.396;2023-04-27T12:47:16;100156.47;;;9.67;90.34
13422;BME280;6782;55.904;13.396;2023-04-27T12:49:43;100193.59;;;9.25;92.61
13422;BME280;6782;55.904;13.396;2023-04-27T12:52:11;100312.06;;;9.24;94.29
13422;BME280;6782;55.904;13.396;2023-04-27T12:54:40;100417.00;;;9.36;97.96
13422;BME280;6782;55.904;13.396;2023-04-27T12:57:07;100512.97;;;9.60;100.00
13422;BME280;6782;55.904;13.396;2023-04-27T12:59:35;100527.47;;;9.76;100.00
13422;BME280;6782;55.904;13.396;2023-04-27T13:02:03;100472.47;;;9.99;99.54
13422;BME280;6782;55.904;13.396;2023-04-27T13:04:50;100373.84;;;9.78;97.30
13422;BME280;6782;55.904;13.396;2023-04-27T13:07:37;100343.00;;;9.82;94.04
13422;BME280;6782;55.904;13.396;2023-04-27T13:10:26;100223.16;;;9.98;90.13
13422;BME280;6782;55.904;13.396;2023-04-27T13:13:14;100166.59;;;9.80;87.48
13422;BME280;6782;55.904;13.396;2023-04-27T13:16:02;100212.03;;;9.88;86.49
13422;BME280;6782;55.904;13.396;2023-04-27T13:18:50;100289.44;;;10.72;87.19
13422;BME280;6782;55.904;13.396;2023-04-27T13:21:38;100120.91;;;10.64;81.75
13422;BME280;6782;55.904;13.396;2023-04-27T13:24:25;100106.84;;;10.64;80.85
13422;BME280;6782;55.904;13.396;2023-04-27T13:27:15;100148.38;;;10.84;80.06
13422;BME280;6782;55.904;13.396;2023-04-27T13:30:04;100107.56;;;10.17;78.84
13422;BME280;6782;55.904;13.396;2023-04-27T13:32:51;100172.16;;;9.99;79.96
13422;BME280;6782;55.904;13.396;2023-04-27T13:35:39;100224.41;;;9.85;80.71
13422;BME280;6782;55.904;13.396;2023-04-27T13:38:26;100320.81;;;8.88;88.03
13422;BME280;6782;55.904;13.396;2023-04-27T13:41:13;100501.59;;;8.78;95.38
13422;BME280;6782;55.904;13.396;2023-04-27T13:44:02;100608.06;;;8.53;100.00
13422;BME280;6782;55.904;13.396;2023-04-27T13:46:49;100703.38;;;8.64;100.00
13422;BME280;6782;55.904;13.396;2023-04-27T13:49:36;100730.91;;;8.95;100.00
13422;BME280;6782;55.904;13.396;2023-04-27T13:52:24;100764.16;;;8.99;100.00
13422;BME280;6782;55.904;13.396;2023-04-27T13:55:11;100748.91;;;8.66;100.00
13422;BME280;6782;55.904;13.396;2023-04-27T13:57:58;100789.19;;;8.68;100.00
13422;BME280;6782;55.904;13.396;2023-04-27T14:00:47;100790.78;;;8.14;100.00
13422;BME280;6782;55.904;13.396;2023-04-27T14:03:36;100834.75;;;8.00;100.00
13422;BME280;6782;55.904;13.396;2023-04-27T14:06:23;100815.03;;;7.61;100.00
13422;BME280;6782;55.904;13.396;2023-04-27T14:09:12;100844.19;;;7.31;100.00
13422;BME280;6782;55.904;13.396;2023-04-27T14:11:59;100821.50;;;7.28;100.00
13422;BME280;6782;55.904;13.396;2023-04-27T14:14:46;100850.03;;;7.60;100.00
13422;BME280;6782;55.904;13.396;2023-04-27T14:17:35;100830.72;;;7.70;100.00
13422;BME280;6782;55.904;13.396;2023-04-27T14:20:22;100806.94;;;7.81;100.00
13422;BME280;6782;55.904;13.396;2023-04-27T14:23:11;100810.28;;;7.96;100.00
13422;BME280;6782;55.904;13.396;2023-04-27T14:25:59;100836.16;;;8.30;100.00
13422;BME280;6782;55.904;13.396;2023-04-27T14:28:49;100796.25;;;8.66;100.00
13422;BME280;6782;55.904;13.396;2023-04-27T14:31:44;100747.19;;;8.65;100.00